TBA9765 ZULS-ZUUU
Flight info
| Callsign | TBA9765 |
|---|---|
| Flight time | 1h 39m |
| Altitude | 41100 |
| Route | LXA W500 DM W9 LADUP LADUP8L |
| Aircraft | A332/H-SDE3GHIJ2J3J5M1RVWXY/LB2D1 |
Departure
| Time | 2026-05-01 07:42 |
|---|---|
| Airport | Lhasa Gonggar International Airport (ZULS) |
Arrival
| Time | 2026-05-01 09:21 |
|---|---|
| Airport | Chengdu Shuangliu International Airport (ZUUU) |
| Time | Latitude | Longitude | Altitude | Speed | Heading |
|---|---|---|---|---|---|
| 2026-05-01 07:30 | 29.29450 | 90.89545 | 11724 ft | 0 kts | 89° |
| 2026-05-01 07:31 | 29.29520 | 90.89605 | 11719 ft | 8 kts | 4° |
| 2026-05-01 07:32 | 29.29618 | 90.89659 | 11713 ft | 10 kts | 88° |
| 2026-05-01 07:32 | 29.29619 | 90.89703 | 11724 ft | 13 kts | 89° |
| 2026-05-01 07:33 | 29.29619 | 90.89780 | 11725 ft | 17 kts | 89° |
| 2026-05-01 07:33 | 29.29620 | 90.89937 | 11711 ft | 22 kts | 90° |
| 2026-05-01 07:33 | 29.29627 | 90.90372 | 11712 ft | 32 kts | 88° |
| 2026-05-01 07:34 | 29.29633 | 90.90639 | 11722 ft | 35 kts | 89° |
| 2026-05-01 07:34 | 29.29640 | 90.91249 | 11713 ft | 41 kts | 89° |
| 2026-05-01 07:34 | 29.29646 | 90.91573 | 11719 ft | 39 kts | 89° |
| 2026-05-01 07:35 | 29.29652 | 90.91876 | 11717 ft | 37 kts | 89° |
| 2026-05-01 07:35 | 29.29654 | 90.92159 | 11704 ft | 35 kts | 89° |
| 2026-05-01 07:35 | 29.29659 | 90.92429 | 11704 ft | 33 kts | 89° |
| 2026-05-01 07:35 | 29.29663 | 90.92685 | 11718 ft | 31 kts | 89° |
| 2026-05-01 07:36 | 29.29667 | 90.92926 | 11714 ft | 29 kts | 89° |
| 2026-05-01 07:36 | 29.29671 | 90.93149 | 11707 ft | 23 kts | 88° |
| 2026-05-01 07:36 | 29.29725 | 90.93266 | 11704 ft | 15 kts | 9° |
| 2026-05-01 07:36 | 29.29824 | 90.93269 | 11701 ft | 14 kts | 358° |
| 2026-05-01 07:37 | 29.29996 | 90.93253 | 11702 ft | 10 kts | 331° |
| 2026-05-01 07:37 | 29.30025 | 90.93191 | 11709 ft | 9 kts | 278° |
| 2026-05-01 07:37 | 29.30024 | 90.93096 | 11703 ft | 15 kts | 269° |
| 2026-05-01 07:38 | 29.30022 | 90.92972 | 11711 ft | 15 kts | 269° |
| 2026-05-01 07:38 | 29.30041 | 90.92910 | 11715 ft | 4 kts | 333° |
| 2026-05-01 07:38 | 29.30075 | 90.92905 | 11716 ft | 0 kts | 354° |
| 2026-05-01 07:39 | 29.30110 | 90.92901 | 11722 ft | 5 kts | 354° |
| 2026-05-01 07:40 | 29.30139 | 90.92896 | 11709 ft | 3 kts | 347° |
| 2026-05-01 07:40 | 29.30163 | 90.92875 | 11722 ft | 6 kts | 309° |
| 2026-05-01 07:40 | 29.30172 | 90.92835 | 11722 ft | 5 kts | 270° |
| 2026-05-01 07:40 | 29.30172 | 90.92740 | 11715 ft | 30 kts | 270° |
| 2026-05-01 07:41 | 29.30167 | 90.92271 | 11709 ft | 86 kts | 268° |
| 2026-05-01 07:41 | 29.30152 | 90.91406 | 11710 ft | 131 kts | 269° |
| 2026-05-01 07:41 | 29.30104 | 90.88709 | 11870 ft | 196 kts | 268° |
| 2026-05-01 07:42 | 29.30077 | 90.87140 | 12486 ft | 198 kts | 266° |
| 2026-05-01 07:42 | 29.29940 | 90.85551 | 13001 ft | 212 kts | 258° |
| 2026-05-01 07:42 | 29.29529 | 90.83844 | 13290 ft | 233 kts | 248° |
| 2026-05-01 07:42 | 29.28971 | 90.82037 | 13709 ft | 246 kts | 254° |
| 2026-05-01 07:43 | 29.28804 | 90.80067 | 14283 ft | 252 kts | 274° |
| 2026-05-01 07:43 | 29.29310 | 90.78137 | 14862 ft | 257 kts | 297° |
| 2026-05-01 07:43 | 29.32077 | 90.75657 | 15970 ft | 263 kts | 345° |
| 2026-05-01 07:44 | 29.35632 | 90.76305 | 16955 ft | 268 kts | 33° |
| 2026-05-01 07:44 | 29.37650 | 90.79754 | 17834 ft | 271 kts | 81° |
| 2026-05-01 07:45 | 29.37608 | 90.81905 | 18300 ft | 273 kts | 100° |
| 2026-05-01 07:45 | 29.37302 | 90.84080 | 18674 ft | 282 kts | 99° |
| 2026-05-01 07:45 | 29.37159 | 90.86374 | 18869 ft | 296 kts | 89° |
| 2026-05-01 07:45 | 29.37440 | 90.88773 | 19036 ft | 311 kts | 76° |
| 2026-05-01 07:46 | 29.38227 | 90.91148 | 19173 ft | 329 kts | 62° |
| 2026-05-01 07:46 | 29.39560 | 90.93356 | 19430 ft | 344 kts | 47° |
| 2026-05-01 07:46 | 29.43532 | 90.96477 | 20499 ft | 353 kts | 19° |
| 2026-05-01 07:47 | 29.45921 | 90.97137 | 21098 ft | 355 kts | 5° |
| 2026-05-01 07:47 | 29.48385 | 90.97471 | 21704 ft | 358 kts | 3° |
| 2026-05-01 07:47 | 29.50873 | 90.97733 | 22313 ft | 361 kts | 5° |
| 2026-05-01 07:47 | 29.53366 | 90.98235 | 22870 ft | 366 kts | 12° |
| 2026-05-01 07:48 | 29.58181 | 91.00335 | 23951 ft | 377 kts | 27° |
| 2026-05-01 07:48 | 29.60359 | 91.02066 | 24468 ft | 384 kts | 39° |
| 2026-05-01 07:48 | 29.62240 | 91.04262 | 24980 ft | 389 kts | 50° |
| 2026-05-01 07:49 | 29.63747 | 91.06852 | 25507 ft | 392 kts | 62° |
| 2026-05-01 07:49 | 29.65393 | 91.12855 | 26484 ft | 398 kts | 84° |
| 2026-05-01 07:49 | 29.65486 | 91.16010 | 26965 ft | 400 kts | 91° |
| 2026-05-01 07:50 | 29.65466 | 91.19234 | 27275 ft | 407 kts | 91° |
| 2026-05-01 07:50 | 29.65870 | 91.25911 | 27664 ft | 427 kts | 81° |
| 2026-05-01 07:50 | 29.66481 | 91.29301 | 27824 ft | 438 kts | 76° |
| 2026-05-01 07:51 | 29.67377 | 91.32693 | 28014 ft | 450 kts | 71° |
| 2026-05-01 07:51 | 29.68426 | 91.36108 | 28214 ft | 457 kts | 70° |
| 2026-05-01 07:51 | 29.69370 | 91.39618 | 28490 ft | 461 kts | 77° |
| 2026-05-01 07:52 | 29.70372 | 91.46943 | 29153 ft | 467 kts | 83° |
| 2026-05-01 07:52 | 29.70726 | 91.50668 | 29506 ft | 469 kts | 84° |
| 2026-05-01 07:52 | 29.71039 | 91.54408 | 29880 ft | 470 kts | 85° |
| 2026-05-01 07:53 | 29.71643 | 91.61942 | 30606 ft | 475 kts | 85° |
| 2026-05-01 07:53 | 29.71956 | 91.65740 | 30911 ft | 478 kts | 86° |
| 2026-05-01 07:53 | 29.72263 | 91.69557 | 31229 ft | 482 kts | 85° |
| 2026-05-01 07:53 | 29.72590 | 91.73418 | 31651 ft | 485 kts | 85° |
| 2026-05-01 07:54 | 29.73245 | 91.81148 | 32558 ft | 485 kts | 85° |
| 2026-05-01 07:55 | 29.74223 | 91.92673 | 33756 ft | 484 kts | 86° |
| 2026-05-01 07:55 | 29.74869 | 92.00370 | 34579 ft | 483 kts | 86° |
| 2026-05-01 07:56 | 29.75833 | 92.12017 | 35443 ft | 490 kts | 86° |
| 2026-05-01 07:56 | 29.76475 | 92.19863 | 35994 ft | 493 kts | 86° |
| 2026-05-01 07:57 | 29.76796 | 92.23804 | 36283 ft | 495 kts | 86° |
| 2026-05-01 07:57 | 29.77439 | 92.31740 | 36792 ft | 499 kts | 86° |
| 2026-05-01 07:58 | 29.78072 | 92.39630 | 37510 ft | 497 kts | 86° |
| 2026-05-01 07:58 | 29.78708 | 92.47587 | 38018 ft | 500 kts | 87° |
| 2026-05-01 07:59 | 29.79343 | 92.55583 | 38442 ft | 503 kts | 87° |
| 2026-05-01 07:59 | 29.79869 | 92.62283 | 38758 ft | 506 kts | 87° |
| 2026-05-01 08:00 | 29.81138 | 92.78527 | 39689 ft | 509 kts | 86° |
| 2026-05-01 08:01 | 29.82075 | 92.90657 | 40371 ft | 509 kts | 86° |
| 2026-05-01 08:01 | 29.82384 | 92.94717 | 40587 ft | 509 kts | 86° |
| 2026-05-01 08:01 | 29.82690 | 92.98778 | 40779 ft | 509 kts | 86° |
| 2026-05-01 08:02 | 29.83303 | 93.06974 | 40843 ft | 518 kts | 86° |
| 2026-05-01 08:03 | 29.84233 | 93.19403 | 40832 ft | 518 kts | 86° |
| 2026-05-01 08:03 | 29.85147 | 93.31784 | 40836 ft | 518 kts | 86° |
| 2026-05-01 08:04 | 29.86347 | 93.48374 | 40831 ft | 519 kts | 87° |
| 2026-05-01 08:05 | 29.87239 | 93.60843 | 40837 ft | 519 kts | 87° |
| 2026-05-01 08:06 | 29.88113 | 93.73252 | 40853 ft | 520 kts | 87° |
| 2026-05-01 08:07 | 29.89268 | 93.89879 | 40850 ft | 520 kts | 87° |
| 2026-05-01 08:08 | 29.91126 | 94.02145 | 40850 ft | 522 kts | 78° |
| 2026-05-01 08:09 | 29.94371 | 94.18468 | 40861 ft | 522 kts | 77° |
| 2026-05-01 08:09 | 29.95992 | 94.26638 | 40860 ft | 522 kts | 78° |
| 2026-05-01 08:10 | 29.99197 | 94.42993 | 40859 ft | 523 kts | 78° |
| 2026-05-01 08:11 | 30.02372 | 94.59316 | 40855 ft | 523 kts | 78° |
| 2026-05-01 08:12 | 30.04743 | 94.71587 | 40871 ft | 523 kts | 78° |
| 2026-05-01 08:13 | 30.07108 | 94.83885 | 40870 ft | 523 kts | 78° |
| 2026-05-01 08:13 | 30.09454 | 94.96192 | 40841 ft | 524 kts | 78° |
| 2026-05-01 08:14 | 30.11065 | 95.04416 | 40832 ft | 525 kts | 78° |
| 2026-05-01 08:14 | 30.12706 | 95.12634 | 40833 ft | 526 kts | 78° |
| 2026-05-01 08:15 | 30.15160 | 95.24979 | 40836 ft | 526 kts | 78° |
| 2026-05-01 08:16 | 30.16787 | 95.33232 | 40835 ft | 527 kts | 78° |
| 2026-05-01 08:16 | 30.18396 | 95.41436 | 40834 ft | 527 kts | 78° |
| 2026-05-01 08:17 | 30.20013 | 95.49709 | 40819 ft | 527 kts | 78° |
| 2026-05-01 08:17 | 30.21625 | 95.57973 | 40833 ft | 527 kts | 78° |
| 2026-05-01 08:18 | 30.23233 | 95.66258 | 40836 ft | 528 kts | 78° |
| 2026-05-01 08:19 | 30.26436 | 95.82836 | 40836 ft | 528 kts | 78° |
| 2026-05-01 08:19 | 30.28033 | 95.91140 | 40837 ft | 529 kts | 78° |
| 2026-05-01 08:20 | 30.29081 | 95.99526 | 40834 ft | 526 kts | 90° |
| 2026-05-01 08:20 | 30.29213 | 96.07983 | 40831 ft | 525 kts | 93° |
| 2026-05-01 08:21 | 30.29168 | 96.16430 | 40839 ft | 525 kts | 94° |
| 2026-05-01 08:21 | 30.29088 | 96.24841 | 40850 ft | 525 kts | 93° |
| 2026-05-01 08:22 | 30.29018 | 96.33287 | 40849 ft | 525 kts | 93° |
| 2026-05-01 08:22 | 30.28953 | 96.41760 | 40852 ft | 525 kts | 93° |
| 2026-05-01 08:23 | 30.28888 | 96.50210 | 40847 ft | 525 kts | 94° |
| 2026-05-01 08:23 | 30.28817 | 96.58677 | 40849 ft | 526 kts | 94° |
| 2026-05-01 08:24 | 30.28739 | 96.67099 | 40845 ft | 526 kts | 94° |
| 2026-05-01 08:24 | 30.28655 | 96.75593 | 40854 ft | 528 kts | 94° |
| 2026-05-01 08:25 | 30.28564 | 96.84084 | 40846 ft | 527 kts | 94° |
| 2026-05-01 08:25 | 30.28471 | 96.92544 | 40849 ft | 526 kts | 94° |
| 2026-05-01 08:26 | 30.28372 | 97.01027 | 40846 ft | 527 kts | 94° |
| 2026-05-01 08:26 | 30.28262 | 97.09461 | 40854 ft | 529 kts | 94° |
| 2026-05-01 08:27 | 30.28152 | 97.17983 | 40849 ft | 529 kts | 93° |
| 2026-05-01 08:27 | 30.28037 | 97.26494 | 40852 ft | 530 kts | 94° |
| 2026-05-01 08:28 | 30.27915 | 97.35035 | 40851 ft | 530 kts | 94° |
| 2026-05-01 08:28 | 30.27787 | 97.43558 | 40854 ft | 530 kts | 94° |
| 2026-05-01 08:29 | 30.27653 | 97.52043 | 40860 ft | 530 kts | 93° |
| 2026-05-01 08:29 | 30.27514 | 97.60581 | 40857 ft | 530 kts | 94° |
| 2026-05-01 08:30 | 30.27370 | 97.69099 | 40856 ft | 530 kts | 93° |
| 2026-05-01 08:30 | 30.27220 | 97.77631 | 40854 ft | 530 kts | 94° |
| 2026-05-01 08:31 | 30.27067 | 97.86167 | 40862 ft | 530 kts | 93° |
| 2026-05-01 08:31 | 30.26906 | 97.94634 | 40857 ft | 530 kts | 93° |
| 2026-05-01 08:32 | 30.26737 | 98.03155 | 40856 ft | 530 kts | 94° |
| 2026-05-01 08:32 | 30.26564 | 98.11681 | 40860 ft | 530 kts | 94° |
| 2026-05-01 08:33 | 30.26386 | 98.20207 | 40861 ft | 530 kts | 94° |
| 2026-05-01 08:33 | 30.26202 | 98.28728 | 40852 ft | 530 kts | 94° |
| 2026-05-01 08:34 | 30.26012 | 98.37277 | 40860 ft | 530 kts | 94° |
| 2026-05-01 08:34 | 30.25817 | 98.45813 | 40858 ft | 530 kts | 94° |
| 2026-05-01 08:35 | 30.25616 | 98.54346 | 40861 ft | 530 kts | 94° |
| 2026-05-01 08:35 | 30.25412 | 98.62815 | 40862 ft | 531 kts | 94° |
| 2026-05-01 08:36 | 30.25201 | 98.71355 | 40864 ft | 531 kts | 94° |
| 2026-05-01 08:36 | 30.24984 | 98.79890 | 40859 ft | 531 kts | 94° |
| 2026-05-01 08:37 | 30.24761 | 98.88418 | 40871 ft | 530 kts | 94° |
| 2026-05-01 08:37 | 30.24527 | 98.96956 | 40859 ft | 530 kts | 94° |
| 2026-05-01 08:38 | 30.24292 | 99.05419 | 40878 ft | 530 kts | 93° |
| 2026-05-01 08:38 | 30.24060 | 99.13950 | 40858 ft | 530 kts | 93° |
| 2026-05-01 08:39 | 30.23816 | 99.22482 | 40876 ft | 530 kts | 93° |
| 2026-05-01 08:39 | 30.23568 | 99.31011 | 40859 ft | 530 kts | 93° |
| 2026-05-01 08:40 | 30.23186 | 99.43769 | 40868 ft | 529 kts | 94° |
| 2026-05-01 08:40 | 30.22922 | 99.52279 | 40865 ft | 529 kts | 93° |
| 2026-05-01 08:41 | 30.22655 | 99.60779 | 40879 ft | 529 kts | 93° |
| 2026-05-01 08:41 | 30.22381 | 99.69283 | 40876 ft | 528 kts | 93° |
| 2026-05-01 08:42 | 30.22104 | 99.77717 | 40862 ft | 529 kts | 93° |
| 2026-05-01 08:42 | 30.21819 | 99.86219 | 40865 ft | 528 kts | 93° |
| 2026-05-01 08:43 | 30.21530 | 99.94705 | 40869 ft | 529 kts | 93° |
| 2026-05-01 08:43 | 30.21237 | 100.03199 | 40850 ft | 528 kts | 93° |
| 2026-05-01 08:44 | 30.20935 | 100.11699 | 40851 ft | 529 kts | 93° |
| 2026-05-01 08:44 | 30.20627 | 100.20182 | 40848 ft | 528 kts | 93° |
| 2026-05-01 08:45 | 30.20315 | 100.28681 | 40851 ft | 528 kts | 94° |
| 2026-05-01 08:45 | 30.19997 | 100.37163 | 40852 ft | 528 kts | 94° |
| 2026-05-01 08:46 | 30.19676 | 100.45652 | 40849 ft | 527 kts | 94° |
| 2026-05-01 08:46 | 30.19352 | 100.54061 | 40852 ft | 527 kts | 94° |
| 2026-05-01 08:47 | 30.19018 | 100.62529 | 40853 ft | 527 kts | 94° |
| 2026-05-01 08:47 | 30.18678 | 100.71000 | 40851 ft | 527 kts | 94° |
| 2026-05-01 08:48 | 30.18393 | 100.78040 | 40849 ft | 527 kts | 94° |
| 2026-05-01 08:48 | 30.18044 | 100.86507 | 40852 ft | 526 kts | 94° |
| 2026-05-01 08:49 | 30.17692 | 100.94949 | 40850 ft | 526 kts | 94° |
| 2026-05-01 08:49 | 30.17332 | 101.03387 | 40853 ft | 525 kts | 94° |
| 2026-05-01 08:50 | 30.16970 | 101.11813 | 40847 ft | 525 kts | 94° |
| 2026-05-01 08:50 | 30.16602 | 101.20224 | 40830 ft | 524 kts | 94° |
| 2026-05-01 08:51 | 30.16231 | 101.28626 | 40782 ft | 523 kts | 94° |
| 2026-05-01 08:51 | 30.15856 | 101.36969 | 40784 ft | 522 kts | 94° |
| 2026-05-01 08:52 | 30.15473 | 101.45347 | 40788 ft | 522 kts | 94° |
| 2026-05-01 08:52 | 30.15082 | 101.53730 | 40786 ft | 521 kts | 94° |
| 2026-05-01 08:53 | 30.14692 | 101.62091 | 40788 ft | 520 kts | 94° |
| 2026-05-01 08:53 | 30.14484 | 101.70383 | 40786 ft | 519 kts | 85° |
| 2026-05-01 08:54 | 30.15039 | 101.74499 | 40783 ft | 517 kts | 73° |
| 2026-05-01 08:54 | 30.16149 | 101.78437 | 40780 ft | 514 kts | 67° |
| 2026-05-01 08:54 | 30.18825 | 101.86107 | 40788 ft | 514 kts | 64° |
| 2026-05-01 08:55 | 30.21684 | 101.93702 | 40795 ft | 515 kts | 64° |
| 2026-05-01 08:55 | 30.24531 | 102.01301 | 40788 ft | 514 kts | 64° |
| 2026-05-01 08:56 | 30.27342 | 102.08915 | 40792 ft | 514 kts | 64° |
| 2026-05-01 08:56 | 30.30118 | 102.16499 | 40449 ft | 509 kts | 64° |
| 2026-05-01 08:57 | 30.31500 | 102.20283 | 39732 ft | 513 kts | 64° |
| 2026-05-01 08:57 | 30.32892 | 102.24098 | 39082 ft | 516 kts | 63° |
| 2026-05-01 08:57 | 30.34288 | 102.27926 | 38479 ft | 516 kts | 63° |
| 2026-05-01 08:57 | 30.35684 | 102.31759 | 37840 ft | 517 kts | 63° |
| 2026-05-01 08:58 | 30.37085 | 102.35605 | 37213 ft | 519 kts | 63° |
| 2026-05-01 08:58 | 30.38471 | 102.39420 | 36571 ft | 520 kts | 64° |
| 2026-05-01 08:58 | 30.39880 | 102.43297 | 35890 ft | 522 kts | 64° |
| 2026-05-01 08:58 | 30.41289 | 102.47178 | 35212 ft | 523 kts | 64° |
| 2026-05-01 08:59 | 30.42697 | 102.51066 | 34450 ft | 525 kts | 65° |
| 2026-05-01 08:59 | 30.44115 | 102.54984 | 33555 ft | 530 kts | 65° |
| 2026-05-01 08:59 | 30.45550 | 102.58953 | 32577 ft | 537 kts | 66° |
| 2026-05-01 08:59 | 30.46999 | 102.62969 | 31586 ft | 542 kts | 66° |
| 2026-05-01 09:00 | 30.48456 | 102.67011 | 30767 ft | 542 kts | 67° |
| 2026-05-01 09:00 | 30.49895 | 102.71007 | 30163 ft | 530 kts | 68° |
| 2026-05-01 09:00 | 30.51293 | 102.74895 | 29502 ft | 514 kts | 68° |
| 2026-05-01 09:00 | 30.52650 | 102.78678 | 28800 ft | 502 kts | 68° |
| 2026-05-01 09:01 | 30.53972 | 102.82370 | 28101 ft | 490 kts | 68° |
| 2026-05-01 09:01 | 30.55262 | 102.85971 | 27422 ft | 478 kts | 68° |
| 2026-05-01 09:01 | 30.56524 | 102.89500 | 26774 ft | 468 kts | 67° |
| 2026-05-01 09:01 | 30.57765 | 102.92964 | 26115 ft | 463 kts | 68° |
| 2026-05-01 09:02 | 30.58999 | 102.96421 | 25437 ft | 464 kts | 68° |
| 2026-05-01 09:02 | 30.60229 | 102.99876 | 24773 ft | 464 kts | 68° |
| 2026-05-01 09:02 | 30.61449 | 103.03347 | 24106 ft | 464 kts | 68° |
| 2026-05-01 09:02 | 30.62629 | 103.06763 | 23418 ft | 461 kts | 68° |
| 2026-05-01 09:03 | 30.63817 | 103.10216 | 22781 ft | 457 kts | 68° |
| 2026-05-01 09:03 | 30.64985 | 103.13627 | 22149 ft | 454 kts | 68° |
| 2026-05-01 09:03 | 30.66149 | 103.17027 | 21460 ft | 452 kts | 68° |
| 2026-05-01 09:03 | 30.67311 | 103.20419 | 20802 ft | 449 kts | 68° |
| 2026-05-01 09:04 | 30.68251 | 103.23845 | 20163 ft | 444 kts | 81° |
| 2026-05-01 09:04 | 30.68378 | 103.27391 | 19572 ft | 436 kts | 95° |
| 2026-05-01 09:04 | 30.68095 | 103.30889 | 19023 ft | 430 kts | 98° |
| 2026-05-01 09:04 | 30.67753 | 103.34329 | 18305 ft | 428 kts | 98° |
| 2026-05-01 09:05 | 30.67417 | 103.37724 | 17795 ft | 420 kts | 98° |
| 2026-05-01 09:05 | 30.67090 | 103.41093 | 17096 ft | 418 kts | 97° |
| 2026-05-01 09:05 | 30.66779 | 103.44366 | 16630 ft | 409 kts | 97° |
| 2026-05-01 09:05 | 30.66471 | 103.47643 | 15927 ft | 406 kts | 97° |
| 2026-05-01 09:06 | 30.66168 | 103.50886 | 15342 ft | 401 kts | 97° |
| 2026-05-01 09:06 | 30.65868 | 103.54093 | 14720 ft | 397 kts | 97° |
| 2026-05-01 09:06 | 30.65572 | 103.57260 | 14107 ft | 392 kts | 97° |
| 2026-05-01 09:06 | 30.65279 | 103.60389 | 13472 ft | 389 kts | 97° |
| 2026-05-01 09:07 | 30.64967 | 103.63490 | 12922 ft | 382 kts | 101° |
| 2026-05-01 09:07 | 30.64190 | 103.66383 | 12291 ft | 372 kts | 120° |
| 2026-05-01 09:07 | 30.62601 | 103.68602 | 11828 ft | 348 kts | 144° |
| 2026-05-01 09:07 | 30.60516 | 103.69888 | 11524 ft | 330 kts | 162° |
| 2026-05-01 09:08 | 30.58372 | 103.70624 | 11298 ft | 316 kts | 167° |
| 2026-05-01 09:08 | 30.56280 | 103.71252 | 11114 ft | 304 kts | 167° |
| 2026-05-01 09:08 | 30.54294 | 103.71843 | 10866 ft | 296 kts | 167° |
| 2026-05-01 09:08 | 30.52299 | 103.72371 | 10533 ft | 291 kts | 172° |
| 2026-05-01 09:09 | 30.50303 | 103.72604 | 10226 ft | 285 kts | 176° |
| 2026-05-01 09:09 | 30.48342 | 103.72741 | 9928 ft | 280 kts | 177° |
| 2026-05-01 09:09 | 30.46410 | 103.72865 | 9643 ft | 276 kts | 177° |
| 2026-05-01 09:09 | 30.44504 | 103.72988 | 9349 ft | 272 kts | 176° |
| 2026-05-01 09:10 | 30.42626 | 103.73114 | 9060 ft | 266 kts | 176° |
| 2026-05-01 09:10 | 30.40816 | 103.73236 | 8789 ft | 254 kts | 176° |
| 2026-05-01 09:10 | 30.39089 | 103.73294 | 8525 ft | 243 kts | 184° |
| 2026-05-01 09:10 | 30.37488 | 103.72854 | 8382 ft | 229 kts | 198° |
| 2026-05-01 09:11 | 30.36057 | 103.72231 | 8139 ft | 220 kts | 201° |
| 2026-05-01 09:11 | 30.34619 | 103.71566 | 7738 ft | 222 kts | 201° |
| 2026-05-01 09:11 | 30.33194 | 103.70904 | 7463 ft | 218 kts | 200° |
| 2026-05-01 09:11 | 30.31742 | 103.70477 | 7247 ft | 215 kts | 182° |
| 2026-05-01 09:12 | 30.30307 | 103.70847 | 6998 ft | 213 kts | 150° |
| 2026-05-01 09:12 | 30.29301 | 103.72019 | 6844 ft | 202 kts | 120° |
| 2026-05-01 09:12 | 30.28707 | 103.73461 | 6627 ft | 197 kts | 112° |
| 2026-05-01 09:12 | 30.28206 | 103.74919 | 6398 ft | 194 kts | 111° |
| 2026-05-01 09:13 | 30.27717 | 103.76372 | 6191 ft | 193 kts | 110° |
| 2026-05-01 09:13 | 30.27229 | 103.77803 | 6001 ft | 189 kts | 111° |
| 2026-05-01 09:13 | 30.26816 | 103.79230 | 5802 ft | 186 kts | 101° |
| 2026-05-01 09:13 | 30.26842 | 103.80700 | 5601 ft | 185 kts | 70° |
| 2026-05-01 09:14 | 30.27595 | 103.81866 | 5409 ft | 183 kts | 42° |
| 2026-05-01 09:14 | 30.28605 | 103.82686 | 5316 ft | 171 kts | 30° |
| 2026-05-01 09:14 | 30.29630 | 103.83267 | 5250 ft | 157 kts | 24° |
| 2026-05-01 09:14 | 30.30608 | 103.83732 | 5123 ft | 148 kts | 22° |
| 2026-05-01 09:15 | 30.31569 | 103.84176 | 4859 ft | 149 kts | 22° |
| 2026-05-01 09:15 | 30.32519 | 103.84620 | 4617 ft | 146 kts | 22° |
| 2026-05-01 09:15 | 30.33461 | 103.85060 | 4389 ft | 145 kts | 22° |
| 2026-05-01 09:15 | 30.34383 | 103.85490 | 4258 ft | 142 kts | 22° |
| 2026-05-01 09:16 | 30.35299 | 103.85919 | 4117 ft | 142 kts | 22° |
| 2026-05-01 09:16 | 30.36210 | 103.86343 | 3966 ft | 140 kts | 22° |
| 2026-05-01 09:16 | 30.37107 | 103.86761 | 3932 ft | 139 kts | 21° |
| 2026-05-01 09:17 | 30.38920 | 103.87602 | 3931 ft | 141 kts | 22° |
| 2026-05-01 09:17 | 30.39828 | 103.88023 | 3926 ft | 140 kts | 22° |
| 2026-05-01 09:17 | 30.41595 | 103.88846 | 3882 ft | 132 kts | 22° |
| 2026-05-01 09:18 | 30.42432 | 103.89238 | 3721 ft | 131 kts | 21° |
| 2026-05-01 09:18 | 30.44130 | 103.90025 | 3366 ft | 132 kts | 21° |
| 2026-05-01 09:19 | 30.45834 | 103.90819 | 2999 ft | 131 kts | 21° |
| 2026-05-01 09:19 | 30.46681 | 103.91214 | 2829 ft | 132 kts | 19° |
| 2026-05-01 09:19 | 30.47555 | 103.91624 | 2569 ft | 138 kts | 24° |
| 2026-05-01 09:20 | 30.49253 | 103.92453 | 2190 ft | 128 kts | 21° |
| 2026-05-01 09:20 | 30.50946 | 103.93195 | 1934 ft | 129 kts | 20° |
| 2026-05-01 09:21 | 30.52609 | 103.93978 | 1674 ft | 125 kts | 20° |
| 2026-05-01 09:21 | 30.53201 | 103.94249 | 1663 ft | 52 kts | 22° |
| 2026-05-01 09:21 | 30.53621 | 103.94445 | 1662 ft | 29 kts | 21° |
| 2026-05-01 09:22 | 30.54001 | 103.94430 | 1652 ft | 28 kts | 353° |
| 2026-05-01 09:22 | 30.54308 | 103.94531 | 1651 ft | 6 kts | 359° |
| 2026-05-01 09:23 | 30.54333 | 103.94512 | 1651 ft | 5 kts | 320° |
| 2026-05-01 09:23 | 30.54405 | 103.94477 | 1651 ft | 7 kts | 6° |
| 2026-05-01 09:24 | 30.54512 | 103.94520 | 1651 ft | 10 kts | 21° |
| 2026-05-01 09:24 | 30.54581 | 103.94551 | 1651 ft | 11 kts | 22° |
| 2026-05-01 09:24 | 30.54750 | 103.94632 | 1651 ft | 15 kts | 22° |
| 2026-05-01 09:25 | 30.54956 | 103.94731 | 1651 ft | 18 kts | 22° |
| 2026-05-01 09:25 | 30.55201 | 103.94845 | 1651 ft | 20 kts | 21° |
| 2026-05-01 09:26 | 30.55336 | 103.94907 | 1651 ft | 21 kts | 21° |
| 2026-05-01 09:26 | 30.55617 | 103.95036 | 1651 ft | 17 kts | 21° |
| 2026-05-01 09:26 | 30.55703 | 103.95075 | 1646 ft | 16 kts | 21° |
| 2026-05-01 09:27 | 30.55890 | 103.95160 | 1651 ft | 15 kts | 21° |
| 2026-05-01 09:27 | 30.55991 | 103.95206 | 1651 ft | 16 kts | 21° |
| 2026-05-01 09:27 | 30.56099 | 103.95254 | 1651 ft | 18 kts | 21° |
| 2026-05-01 09:28 | 30.56217 | 103.95307 | 1651 ft | 19 kts | 21° |
| 2026-05-01 09:28 | 30.56336 | 103.95361 | 1651 ft | 11 kts | 21° |
| 2026-05-01 09:28 | 30.56410 | 103.95394 | 1651 ft | 5 kts | 21° |
| 2026-05-01 09:28 | 30.56426 | 103.95401 | 1651 ft | 0 kts | 21° |
| 2026-05-01 09:30 | 30.56426 | 103.95402 | 1651 ft | 1 kts | 21° |
| 2026-05-01 09:30 | 30.56438 | 103.95407 | 1651 ft | 3 kts | 21° |
| 2026-05-01 09:30 | 30.56501 | 103.95433 | 1651 ft | 5 kts | 10° |
| 2026-05-01 09:31 | 30.56537 | 103.95417 | 1651 ft | 6 kts | 320° |
| 2026-05-01 09:31 | 30.56562 | 103.95374 | 1651 ft | 7 kts | 301° |
| 2026-05-01 09:31 | 30.56585 | 103.95298 | 1651 ft | 0 kts | 263° |
| 2026-05-01 09:32 | 30.56583 | 103.95295 | 1651 ft | 1 kts | 248° |
| 2026-05-01 09:32 | 30.56566 | 103.95274 | 1651 ft | 4 kts | 220° |
| 2026-05-01 09:32 | 30.56538 | 103.95263 | 1651 ft | 5 kts | 198° |
| 2026-05-01 09:33 | 30.56516 | 103.95255 | 1651 ft | 0 kts | 197° |